Time;durP1;ratioP1;P1;durP2;ratioP2;P2;SDS_P1;SDS_P2;PMS_P1;PMS_P2;Temp;Humidity;BMP_temperature;BMP_pressure;BME280_temperature;BME280_humidity;BME280_pressure;Samples;Min_cycle;Max_cycle;Signal;HPM_P1;HPM_P2
2023/10/15 00:02:04;;;;;;;;;;;9.10;99.90;;;;;;7328373;19;9222;-80
2023/10/15 00:04:33;;;;;;;;;;;9.20;99.90;;;;;;7329501;19;9200;-79
2023/10/15 00:07:06;;;;;;;;;;;9.20;99.90;;;;;;7329399;19;10976;-79
2023/10/15 00:09:39;;;;;;;;;;;9.20;99.90;;;;;;7328790;19;9511;-79
2023/10/15 00:12:08;;;;;;;;;;;9.20;99.90;;;;;;7328926;19;9278;-79
2023/10/15 00:14:37;;;;;;;;;;;9.30;99.90;;;;;;7328142;19;10584;-80
2023/10/15 00:17:06;;;;;;;;;;;9.40;99.90;;;;;;7328976;19;9507;-79
2023/10/15 00:19:35;;;;;;;;;;;9.60;99.90;;;;;;7328003;19;9171;-80
2023/10/15 00:22:07;;;;;;;;;;;9.90;99.90;;;;;;7329167;19;9328;-79
2023/10/15 00:24:39;;;;;;;;;;;10.60;99.90;;;;;;7328137;19;9477;-79
2023/10/15 00:27:07;;;;;;;;;;;10.80;99.90;;;;;;7329105;19;11343;-79
2023/10/15 00:29:37;;;;;;;;;;;10.60;99.90;;;;;;7328130;19;9252;-79
2023/10/15 00:32:07;;;;;;;;;;;10.60;99.90;;;;;;7328684;19;9409;-79
2023/10/15 00:34:36;;;;;;;;;;;10.30;99.90;;;;;;7328943;19;9471;-79
2023/10/15 00:37:06;;;;;;;;;;;10.20;99.90;;;;;;7328598;19;9136;-79
2023/10/15 00:39:41;;;;;;;;;;;10.10;99.90;;;;;;7327722;19;9317;-79
2023/10/15 00:42:10;;;;;;;;;;;9.90;99.90;;;;;;7328323;19;9476;-79
2023/10/15 00:44:39;;;;;;;;;;;9.70;99.90;;;;;;7328943;19;9621;-81
2023/10/15 00:47:15;;;;;;;;;;;9.60;99.90;;;;;;7327733;19;9667;-79
2023/10/15 00:49:45;;;;;;;;;;;9.60;99.90;;;;;;7327888;19;9410;-78
2023/10/15 00:52:14;;;;;;;;;;;9.50;99.90;;;;;;7327782;19;9320;-79
2023/10/15 00:54:46;;;;;;;;;;;9.40;99.90;;;;;;7327564;19;9134;-79
2023/10/15 00:57:41;;;;;;;;;;;9.50;99.90;;;;;;7327985;19;9131;-79
2023/10/15 01:00:37;;;;;;;;;;;9.60;99.90;;;;;;7326763;19;9335;-79
2023/10/15 01:03:07;;;;;;;;;;;9.40;99.90;;;;;;7327998;19;9197;-79
2023/10/15 01:05:45;;;;;;;;;;;9.30;99.90;;;;;;7328223;19;9261;-79
2023/10/15 01:08:16;;;;;;;;;;;9.40;99.90;;;;;;7327224;19;9259;-78
2023/10/15 01:10:53;;;;;;;;;;;9.30;99.90;;;;;;7328071;19;9178;-79
2023/10/15 01:13:24;;;;;;;;;;;9.30;99.90;;;;;;7325985;19;9241;-79
2023/10/15 01:15:54;;;;;;;;;;;9.10;99.90;;;;;;7327550;19;9489;-79
2023/10/15 01:18:23;;;;;;;;;;;9.00;99.90;;;;;;7328024;19;9315;-79
2023/10/15 01:20:52;;;;;;;;;;;8.80;99.90;;;;;;7327111;19;9015;-79
2023/10/15 01:23:28;;;;;;;;;;;8.80;99.90;;;;;;7327564;19;9265;-79
2023/10/15 01:26:12;;;;;;;;;;;8.80;99.90;;;;;;7327255;19;9283;-79
2023/10/15 01:28:43;;;;;;;;;;;9.00;99.90;;;;;;7327194;19;9523;-79
2023/10/15 01:31:15;;;;;;;;;;;9.10;99.90;;;;;;7327200;19;9814;-79
2023/10/15 01:33:49;;;;;;;;;;;9.20;99.90;;;;;;7327392;19;9371;-79
2023/10/15 01:36:26;;;;;;;;;;;9.20;99.90;;;;;;7326685;19;9312;-82
2023/10/15 01:38:58;;;;;;;;;;;9.30;99.90;;;;;;7326421;19;9161;-82
2023/10/15 01:41:31;;;;;;;;;;;9.00;99.90;;;;;;7326919;19;9263;-79
2023/10/15 01:44:01;;;;;;;;;;;9.00;99.90;;;;;;7326103;19;11137;-79
2023/10/15 01:46:47;;;;;;;;;;;9.20;99.90;;;;;;7326908;19;9570;-79
2023/10/15 01:49:31;;;;;;;;;;;9.30;99.90;;;;;;7326352;19;9478;-79
2023/10/15 01:52:05;;;;;;;;;;;9.10;99.90;;;;;;7326559;19;9245;-79
2023/10/15 01:54:35;;;;;;;;;;;9.10;99.90;;;;;;7326403;19;9176;-79
2023/10/15 01:57:09;;;;;;;;;;;9.10;99.90;;;;;;7325887;19;9253;-81
2023/10/15 01:59:45;;;;;;;;;;;9.00;99.90;;;;;;7326469;19;9123;-82
2023/10/15 02:02:15;;;;;;;;;;;8.90;99.90;;;;;;7326280;19;9199;-82
2023/10/15 02:04:47;;;;;;;;;;;9.00;99.90;;;;;;7326237;19;9338;-82
2023/10/15 02:07:19;;;;;;;;;;;9.10;99.90;;;;;;7323296;19;9476;-82
2023/10/15 02:09:50;;;;;;;;;;;9.10;99.90;;;;;;7325639;19;9237;-81
2023/10/15 02:12:22;;;;;;;;;;;9.00;99.90;;;;;;7325281;19;9642;-82
2023/10/15 02:14:51;;;;;;;;;;;8.90;99.90;;;;;;7325531;19;9580;-82
2023/10/15 02:17:23;;;;;;;;;;;8.90;99.90;;;;;;7326284;19;10877;-82
2023/10/15 02:19:55;;;;;;;;;;;8.90;99.90;;;;;;7325127;19;9770;-82
2023/10/15 02:22:24;;;;;;;;;;;8.70;99.90;;;;;;7325988;19;9249;-82
2023/10/15 02:24:56;;;;;;;;;;;8.70;99.90;;;;;;7323425;19;9646;-82
2023/10/15 02:27:34;;;;;;;;;;;8.70;99.90;;;;;;7324690;19;9191;-82
2023/10/15 02:30:04;;;;;;;;;;;8.70;99.90;;;;;;7324955;19;9507;-82
2023/10/15 02:32:34;;;;;;;;;;;8.70;99.90;;;;;;7325085;19;9563;-82
2023/10/15 02:35:12;;;;;;;;;;;8.70;99.90;;;;;;7325260;19;9224;-82
2023/10/15 02:37:41;;;;;;;;;;;8.60;99.90;;;;;;7325865;19;9133;-82
2023/10/15 02:40:16;;;;;;;;;;;8.50;99.90;;;;;;7325084;19;9514;-82
2023/10/15 02:42:53;;;;;;;;;;;8.40;99.90;;;;;;7325226;19;9263;-82
2023/10/15 02:45:23;;;;;;;;;;;8.30;99.90;;;;;;7325057;19;9285;-82
2023/10/15 02:47:55;;;;;;;;;;;8.30;99.90;;;;;;7325597;19;9340;-80
2023/10/15 02:50:26;;;;;;;;;;;8.30;99.90;;;;;;7324546;19;9250;-80
2023/10/15 02:52:56;;;;;;;;;;;8.20;99.90;;;;;;7324991;19;9513;-80
2023/10/15 02:55:35;;;;;;;;;;;8.20;99.90;;;;;;7324497;19;9206;-79
2023/10/15 02:58:09;;;;;;;;;;;8.00;99.90;;;;;;7324896;19;9459;-79
2023/10/15 03:00:51;;;;;;;;;;;8.20;99.90;;;;;;7324802;19;9299;-79
2023/10/15 03:03:23;;;;;;;;;;;8.10;99.90;;;;;;7325019;19;9477;-79
2023/10/15 03:05:57;;;;;;;;;;;8.20;99.90;;;;;;7324270;19;9287;-80
2023/10/15 03:08:31;;;;;;;;;;;8.30;99.90;;;;;;7324458;19;9328;-79
2023/10/15 03:11:12;;;;;;;;;;;8.50;99.90;;;;;;7324388;19;9130;-79
2023/10/15 03:13:53;;;;;;;;;;;8.60;99.90;;;;;;7323848;19;9307;-79
2023/10/15 03:16:24;;;;;;;;;;;8.80;99.90;;;;;;7324776;19;10332;-80
2023/10/15 03:18:56;;;;;;;;;;;8.70;99.90;;;;;;7326477;19;11451;-80
2023/10/15 03:21:30;;;;;;;;;;;8.70;99.90;;;;;;7331174;19;10328;-79
2023/10/15 03:24:02;;;;;;;;;;;8.80;99.90;;;;;;7330929;19;9328;-79
2023/10/15 03:26:32;;;;;;;;;;;8.70;99.90;;;;;;7330238;19;9000;-80
2023/10/15 03:29:08;;;;;;;;;;;8.70;99.90;;;;;;7330708;19;9158;-79
2023/10/15 03:31:37;;;;;;;;;;;8.70;99.90;;;;;;7330094;19;9383;-79
2023/10/15 03:34:14;;;;;;;;;;;8.60;99.90;;;;;;7329846;19;9216;-80
2023/10/15 03:36:57;;;;;;;;;;;8.60;99.90;;;;;;7329989;19;9330;-80
2023/10/15 03:39:45;;;;;;;;;;;8.60;99.90;;;;;;7330201;19;9535;-80
2023/10/15 03:42:26;;;;;;;;;;;8.80;99.90;;;;;;7330089;19;9766;-79
2023/10/15 03:45:09;;;;;;;;;;;8.90;99.90;;;;;;7329801;19;9235;-79
2023/10/15 03:47:40;;;;;;;;;;;9.00;99.90;;;;;;7330026;19;9508;-81
2023/10/15 03:50:10;;;;;;;;;;;9.10;99.90;;;;;;7329957;19;9271;-81
2023/10/15 03:52:40;;;;;;;;;;;9.00;99.90;;;;;;7329045;19;9402;-81
2023/10/15 03:55:09;;;;;;;;;;;8.90;99.90;;;;;;7329455;19;9253;-79
2023/10/15 03:57:39;;;;;;;;;;;9.00;99.90;;;;;;7329674;19;9190;-79
2023/10/15 04:00:16;;;;;;;;;;;8.90;99.90;;;;;;7329889;19;9259;-79
2023/10/15 04:03:00;;;;;;;;;;;8.90;99.90;;;;;;7329612;19;9496;-79
2023/10/15 04:05:32;;;;;;;;;;;8.90;99.90;;;;;;7329485;19;9275;-79
2023/10/15 04:08:01;;;;;;;;;;;9.00;99.90;;;;;;7329846;19;9135;-81
2023/10/15 04:10:33;;;;;;;;;;;8.80;99.90;;;;;;7329611;19;9324;-81
2023/10/15 04:13:04;;;;;;;;;;;8.70;99.90;;;;;;7330293;19;9606;-81
2023/10/15 04:15:37;;;;;;;;;;;8.80;99.90;;;;;;7329790;19;10688;-81
2023/10/15 04:18:06;;;;;;;;;;;9.00;99.90;;;;;;7329887;19;9372;-78
2023/10/15 04:20:36;;;;;;;;;;;8.70;99.90;;;;;;7328804;19;9242;-79
2023/10/15 04:23:11;;;;;;;;;;;8.90;99.90;;;;;;7329093;19;9264;-78
2023/10/15 04:25:40;;;;;;;;;;;8.90;99.90;;;;;;7329247;19;9298;-79
2023/10/15 04:28:13;;;;;;;;;;;8.80;99.90;;;;;;7328928;19;9137;-80
2023/10/15 04:30:46;;;;;;;;;;;8.70;99.90;;;;;;7326632;19;10318;-81
2023/10/15 04:33:17;;;;;;;;;;;8.50;99.90;;;;;;7328208;19;9208;-81
2023/10/15 04:35:48;;;;;;;;;;;8.20;99.90;;;;;;7328257;19;9300;-79
2023/10/15 04:38:21;;;;;;;;;;;7.90;99.90;;;;;;7328689;19;9298;-79
2023/10/15 04:41:00;;;;;;;;;;;7.70;99.90;;;;;;7328691;19;9227;-79
2023/10/15 04:43:29;;;;;;;;;;;7.60;99.90;;;;;;7328291;19;9315;-78
2023/10/15 04:46:02;;;;;;;;;;;7.50;99.90;;;;;;7328191;19;9127;-79
2023/10/15 04:48:32;;;;;;;;;;;7.60;99.90;;;;;;7328908;19;9194;-79
2023/10/15 04:51:04;;;;;;;;;;;7.60;99.90;;;;;;7327646;19;9217;-79
2023/10/15 04:53:33;;;;;;;;;;;7.50;99.90;;;;;;7328294;19;10660;-79
2023/10/15 04:56:04;;;;;;;;;;;7.50;99.90;;;;;;7327042;19;9179;-79
2023/10/15 04:58:34;;;;;;;;;;;7.40;99.90;;;;;;7328286;19;9208;-79
2023/10/15 05:01:06;;;;;;;;;;;7.40;99.90;;;;;;7327295;19;9298;-79
2023/10/15 05:03:36;;;;;;;;;;;7.50;99.90;;;;;;7328506;19;9198;-79
2023/10/15 05:06:06;;;;;;;;;;;7.50;99.90;;;;;;7327697;19;9437;-79
2023/10/15 05:08:35;;;;;;;;;;;7.50;99.90;;;;;;7328238;19;9178;-79
2023/10/15 05:11:04;;;;;;;;;;;7.50;99.90;;;;;;7327974;19;9254;-79
2023/10/15 05:13:34;;;;;;;;;;;7.50;99.90;;;;;;7327071;19;9326;-79
2023/10/15 05:16:05;;;;;;;;;;;7.60;99.90;;;;;;7327892;19;9218;-79
2023/10/15 05:18:34;;;;;;;;;;;7.70;99.90;;;;;;7326676;19;9470;-79
2023/10/15 05:21:03;;;;;;;;;;;7.60;99.90;;;;;;7327130;19;9446;-79
2023/10/15 05:23:33;;;;;;;;;;;7.60;99.90;;;;;;7326981;19;10383;-79
2023/10/15 05:26:02;;;;;;;;;;;7.70;99.90;;;;;;7327366;19;9445;-79
2023/10/15 05:28:31;;;;;;;;;;;7.70;99.90;;;;;;7326769;19;9190;-79
2023/10/15 05:31:00;;;;;;;;;;;7.80;99.90;;;;;;7327306;19;9304;-80
2023/10/15 05:33:33;;;;;;;;;;;7.90;99.90;;;;;;7326045;19;11658;-79
2023/10/15 05:36:01;;;;;;;;;;;8.00;99.90;;;;;;7326732;19;9340;-80
2023/10/15 05:38:30;;;;;;;;;;;8.00;99.90;;;;;;7326882;19;9542;-79
2023/10/15 05:41:00;;;;;;;;;;;8.00;99.90;;;;;;7326429;19;9356;-79
2023/10/15 05:43:29;;;;;;;;;;;8.10;99.90;;;;;;7326757;19;9242;-80
2023/10/15 05:45:58;;;;;;;;;;;8.10;99.90;;;;;;7327021;19;9485;-79
2023/10/15 05:48:27;;;;;;;;;;;8.30;99.90;;;;;;7326637;19;9328;-79
2023/10/15 05:50:58;;;;;;;;;;;8.30;99.90;;;;;;7326488;19;9440;-79
2023/10/15 05:53:27;;;;;;;;;;;8.30;99.90;;;;;;7326847;19;9226;-79
2023/10/15 05:55:56;;;;;;;;;;;8.50;99.90;;;;;;7326029;19;9243;-79
2023/10/15 05:58:25;;;;;;;;;;;8.90;99.90;;;;;;7327208;19;9470;-79
2023/10/15 06:00:54;;;;;;;;;;;9.30;99.90;;;;;;7326016;19;9564;-79
2023/10/15 06:03:23;;;;;;;;;;;9.50;99.90;;;;;;7325913;19;9182;-79
2023/10/15 06:05:52;;;;;;;;;;;9.40;99.90;;;;;;7324153;19;9239;-79
2023/10/15 06:08:24;;;;;;;;;;;9.30;99.90;;;;;;7326149;19;9138;-79
2023/10/15 06:10:53;;;;;;;;;;;9.50;99.90;;;;;;7325465;19;9263;-79
2023/10/15 06:13:21;;;;;;;;;;;9.40;99.90;;;;;;7325705;19;9445;-79
2023/10/15 06:15:52;;;;;;;;;;;9.40;99.90;;;;;;7325645;19;10977;-79
2023/10/15 06:18:21;;;;;;;;;;;9.40;99.90;;;;;;7325337;19;9882;-79
2023/10/15 06:20:51;;;;;;;;;;;9.40;99.90;;;;;;7325635;19;10334;-81
2023/10/15 06:23:20;;;;;;;;;;;9.10;99.90;;;;;;7325703;19;9226;-81
2023/10/15 06:25:52;;;;;;;;;;;8.90;99.90;;;;;;7326147;19;9124;-81
2023/10/15 06:28:22;;;;;;;;;;;9.00;99.90;;;;;;7325493;19;9187;-79
2023/10/15 06:30:51;;;;;;;;;;;9.20;99.90;;;;;;7326103;19;9285;-79
2023/10/15 06:33:20;;;;;;;;;;;9.30;99.90;;;;;;7325128;19;9181;-79
2023/10/15 06:35:53;;;;;;;;;;;9.30;99.90;;;;;;7325692;19;9210;-78
2023/10/15 06:38:21;;;;;;;;;;;9.10;99.90;;;;;;7325546;19;9200;-79
2023/10/15 06:40:53;;;;;;;;;;;9.30;99.90;;;;;;7325414;19;9135;-79
2023/10/15 06:43:22;;;;;;;;;;;9.10;99.90;;;;;;7325517;19;9218;-80
2023/10/15 06:45:51;;;;;;;;;;;9.00;99.90;;;;;;7325128;19;9245;-79
2023/10/15 06:48:22;;;;;;;;;;;9.10;99.90;;;;;;7325384;19;9468;-79
2023/10/15 06:50:51;;;;;;;;;;;9.20;99.90;;;;;;7325294;19;9221;-79
2023/10/15 06:53:23;;;;;;;;;;;9.20;99.90;;;;;;7323553;19;9544;-79
2023/10/15 06:55:54;;;;;;;;;;;9.20;99.90;;;;;;7324858;19;9229;-80
2023/10/15 06:58:24;;;;;;;;;;;9.20;99.90;;;;;;7325523;19;10772;-80
2023/10/15 07:00:55;;;;;;;;;;;9.40;99.90;;;;;;7323897;19;9173;-80
2023/10/15 07:03:24;;;;;;;;;;;9.30;99.90;;;;;;7325231;19;9125;-80
2023/10/15 07:05:53;;;;;;;;;;;9.40;99.90;;;;;;7324072;19;9637;-80
2023/10/15 07:08:22;;;;;;;;;;;9.40;99.90;;;;;;7324867;19;10754;-80
2023/10/15 07:10:50;;;;;;;;;;;9.60;99.90;;;;;;7324042;19;9332;-79
2023/10/15 07:13:22;;;;;;;;;;;9.60;99.90;;;;;;7323991;19;9328;-79
2023/10/15 07:15:52;;;;;;;;;;;9.80;99.90;;;;;;7323556;19;9550;-80
2023/10/15 07:18:21;;;;;;;;;;;9.80;99.90;;;;;;7324233;19;9543;-79
2023/10/15 07:20:50;;;;;;;;;;;9.60;99.90;;;;;;7323759;19;9986;-80
2023/10/15 07:23:18;;;;;;;;;;;9.50;99.90;;;;;;7323523;19;10602;-79
2023/10/15 07:25:47;;;;;;;;;;;9.70;99.90;;;;;;7323939;19;9328;-80
2023/10/15 07:28:16;;;;;;;;;;;9.70;99.90;;;;;;7323386;19;9122;-79
2023/10/15 07:30:51;;;;;;;;;;;9.70;99.90;;;;;;7323300;19;9311;-80
2023/10/15 07:33:20;;;;;;;;;;;9.60;99.90;;;;;;7322391;19;9329;-80
2023/10/15 07:35:49;;;;;;;;;;;9.80;99.90;;;;;;7323163;19;9124;-80
2023/10/15 07:38:18;;;;;;;;;;;9.70;99.90;;;;;;7323099;19;9980;-79
2023/10/15 07:40:47;;;;;;;;;;;9.90;99.90;;;;;;7323101;19;9249;-80
2023/10/15 07:43:16;;;;;;;;;;;10.20;99.90;;;;;;7322763;19;9333;-79
2023/10/15 07:45:44;;;;;;;;;;;10.60;99.90;;;;;;7322782;19;9320;-80
2023/10/15 07:48:16;;;;;;;;;;;11.00;99.90;;;;;;7323349;19;9500;-80
2023/10/15 07:50:45;;;;;;;;;;;11.30;99.90;;;;;;7322661;19;9503;-80
2023/10/15 07:53:14;;;;;;;;;;;11.30;99.90;;;;;;7323142;19;9176;-80
2023/10/15 07:55:43;;;;;;;;;;;11.40;99.90;;;;;;7322279;19;9226;-80
2023/10/15 07:58:12;;;;;;;;;;;11.70;99.90;;;;;;7323303;19;9236;-80
2023/10/15 08:00:41;;;;;;;;;;;11.90;99.90;;;;;;7321816;19;9257;-80
2023/10/15 08:03:10;;;;;;;;;;;11.70;99.90;;;;;;7322557;19;9681;-80
2023/10/15 08:05:39;;;;;;;;;;;11.60;99.90;;;;;;7326812;19;9239;-80
2023/10/15 08:08:08;;;;;;;;;;;11.40;99.90;;;;;;7329429;19;9225;-80
2023/10/15 08:10:44;;;;;;;;;;;11.20;99.90;;;;;;7328859;19;9328;-80
2023/10/15 08:13:13;;;;;;;;;;;10.70;99.90;;;;;;7328531;19;9525;-80
2023/10/15 08:15:42;;;;;;;;;;;10.60;99.90;;;;;;7328754;19;9326;-80
2023/10/15 08:18:12;;;;;;;;;;;10.40;99.90;;;;;;7329353;19;9217;-80
2023/10/15 08:20:43;;;;;;;;;;;10.00;99.90;;;;;;7328413;19;9489;-79
2023/10/15 08:23:13;;;;;;;;;;;9.90;99.90;;;;;;7329355;19;9464;-80
2023/10/15 08:25:42;;;;;;;;;;;9.50;99.90;;;;;;7328851;19;9255;-80
2023/10/15 08:28:11;;;;;;;;;;;9.40;99.90;;;;;;7328527;19;9284;-80
2023/10/15 08:30:41;;;;;;;;;;;9.40;99.90;;;;;;7328684;19;9013;-80
2023/10/15 08:33:12;;;;;;;;;;;9.50;99.90;;;;;;7328121;19;9571;-79
2023/10/15 08:35:43;;;;;;;;;;;9.80;99.90;;;;;;7328585;19;9248;-80
2023/10/15 08:38:13;;;;;;;;;;;9.90;99.90;;;;;;7328495;19;9189;-80
2023/10/15 08:40:44;;;;;;;;;;;9.70;99.90;;;;;;7328539;19;9517;-80
2023/10/15 08:43:15;;;;;;;;;;;9.50;99.90;;;;;;7328201;19;9287;-79
2023/10/15 08:45:47;;;;;;;;;;;9.30;99.90;;;;;;7328701;19;9245;-79
2023/10/15 08:48:16;;;;;;;;;;;9.00;99.90;;;;;;7328341;19;9665;-79
2023/10/15 08:50:51;;;;;;;;;;;8.90;99.90;;;;;;7328690;19;9225;-79
2023/10/15 08:53:22;;;;;;;;;;;8.90;99.90;;;;;;7328388;19;9205;-79
2023/10/15 08:55:57;;;;;;;;;;;9.10;99.90;;;;;;7328094;19;9107;-79
2023/10/15 08:58:28;;;;;;;;;;;9.10;99.90;;;;;;7328340;19;9199;-79
2023/10/15 09:01:00;;;;;;;;;;;9.20;99.90;;;;;;7327817;19;10404;-79
2023/10/15 09:03:29;;;;;;;;;;;9.40;99.90;;;;;;7328593;19;9529;-79
2023/10/15 09:06:05;;;;;;;;;;;9.60;99.90;;;;;;7327645;19;9536;-79
2023/10/15 09:08:35;;;;;;;;;;;9.70;99.90;;;;;;7328038;19;11332;-79
2023/10/15 09:11:04;;;;;;;;;;;9.60;99.90;;;;;;7328087;19;9258;-80
2023/10/15 09:13:36;;;;;;;;;;;9.80;99.90;;;;;;7327837;19;9441;-79
2023/10/15 09:16:08;;;;;;;;;;;10.00;99.90;;;;;;7326739;19;9183;-80
2023/10/15 09:18:38;;;;;;;;;;;10.10;99.90;;;;;;7327079;19;9344;-80
2023/10/15 09:21:09;;;;;;;;;;;9.90;99.90;;;;;;7327718;19;9327;-80
2023/10/15 09:23:41;;;;;;;;;;;9.80;99.90;;;;;;7327268;19;9297;-80
2023/10/15 09:26:10;;;;;;;;;;;9.90;99.90;;;;;;7327080;19;9329;-80
2023/10/15 09:28:39;;;;;;;;;;;10.20;99.90;;;;;;7327026;19;9353;-79
2023/10/15 09:31:11;;;;;;;;;;;10.30;99.90;;;;;;7327560;19;9262;-80
2023/10/15 09:33:42;;;;;;;;;;;10.30;99.90;;;;;;7327216;19;9343;-80
2023/10/15 09:36:13;;;;;;;;;;;10.30;99.90;;;;;;7327077;19;9211;-79
2023/10/15 09:38:42;;;;;;;;;;;10.20;99.90;;;;;;7327235;19;9237;-79
2023/10/15 09:41:12;;;;;;;;;;;10.40;99.90;;;;;;7326206;19;9217;-80
2023/10/15 09:43:43;;;;;;;;;;;10.30;99.90;;;;;;7327283;19;9250;-80
2023/10/15 09:46:12;;;;;;;;;;;10.30;99.90;;;;;;7326684;19;9353;-80
2023/10/15 09:48:42;;;;;;;;;;;10.60;99.90;;;;;;7327117;19;9226;-81
2023/10/15 09:51:14;;;;;;;;;;;10.90;99.90;;;;;;7326576;19;9486;-80
2023/10/15 09:53:47;;;;;;;;;;;11.30;99.90;;;;;;7327043;19;9240;-80
2023/10/15 09:56:19;;;;;;;;;;;11.20;99.90;;;;;;7326030;19;9114;-80
2023/10/15 09:58:48;;;;;;;;;;;11.30;99.90;;;;;;7326691;19;9181;-80
2023/10/15 10:01:28;;;;;;;;;;;11.30;99.90;;;;;;7326281;19;9184;-80
2023/10/15 10:04:23;;;;;;;;;;;11.20;99.90;;;;;;7325834;19;10712;-80
2023/10/15 10:07:13;;;;;;;;;;;11.20;99.90;;;;;;7326343;19;10508;-81
2023/10/15 10:10:18;;;;;;;;;;;11.20;99.90;;;;;;7326267;19;8980;-80
2023/10/15 10:13:12;;;;;;;;;;;11.40;99.90;;;;;;7322880;19;9281;-81
2023/10/15 10:15:54;;;;;;;;;;;11.50;99.90;;;;;;7325522;19;9194;-80
2023/10/15 10:18:24;;;;;;;;;;;11.70;99.90;;;;;;7325501;19;9653;-80
2023/10/15 10:20:55;;;;;;;;;;;12.20;99.90;;;;;;7325810;19;9637;-81
2023/10/15 10:23:27;;;;;;;;;;;12.50;99.90;;;;;;7324749;19;9166;-80
2023/10/15 10:25:58;;;;;;;;;;;12.70;99.90;;;;;;7325922;19;9466;-81
2023/10/15 10:28:27;;;;;;;;;;;13.00;99.90;;;;;;7322385;19;9149;-81
2023/10/15 10:30:58;;;;;;;;;;;13.10;99.90;;;;;;7325386;19;9576;-81
2023/10/15 10:33:54;;;;;;;;;;;13.50;99.90;;;;;;7325332;19;9156;-80
2023/10/15 10:36:26;;;;;;;;;;;13.80;99.90;;;;;;7325375;19;9500;-80
2023/10/15 10:39:15;;;;;;;;;;;14.10;99.90;;;;;;7325463;19;9269;-80
2023/10/15 10:41:46;;;;;;;;;;;14.00;99.90;;;;;;7324894;19;9402;-80
2023/10/15 10:44:41;;;;;;;;;;;13.80;99.90;;;;;;7325384;19;9162;-80
2023/10/15 10:47:22;;;;;;;;;;;13.80;99.90;;;;;;7325110;19;9215;-80
2023/10/15 10:49:58;;;;;;;;;;;13.90;99.90;;;;;;7324190;19;9219;-80
2023/10/15 10:52:34;;;;;;;;;;;13.10;97.50;;;;;;7324816;19;9261;-80
2023/10/15 10:55:33;;;;;;;;;;;12.70;98.60;;;;;;7324759;19;9477;-80
2023/10/15 10:58:06;;;;;;;;;;;12.10;99.80;;;;;;7324683;19;10341;-80
2023/10/15 11:00:36;;;;;;;;;;;12.00;95.50;;;;;;7324814;19;9251;-79
2023/10/15 11:03:06;;;;;;;;;;;11.70;94.00;;;;;;7325280;19;9213;-80
2023/10/15 11:05:36;;;;;;;;;;;11.60;98.70;;;;;;7324633;19;9225;-80
2023/10/15 11:08:06;;;;;;;;;;;11.60;93.40;;;;;;7324325;19;9228;-80
2023/10/15 11:10:38;;;;;;;;;;;11.90;99.90;;;;;;7324524;19;9278;-80
2023/10/15 11:13:06;;;;;;;;;;;12.00;97.40;;;;;;7324582;19;9598;-79
2023/10/15 11:15:36;;;;;;;;;;;12.20;96.30;;;;;;7323802;19;9543;-79
2023/10/15 11:18:08;;;;;;;;;;;12.40;96.00;;;;;;7324546;19;9274;-80
2023/10/15 11:20:38;;;;;;;;;;;12.70;95.10;;;;;;7323715;19;9242;-80
2023/10/15 11:23:10;;;;;;;;;;;12.90;98.00;;;;;;7323932;19;9300;-79
2023/10/15 11:25:42;;;;;;;;;;;13.00;93.90;;;;;;7323659;19;9310;-79
2023/10/15 11:28:11;;;;;;;;;;;12.90;93.50;;;;;;7324423;19;9481;-80
2023/10/15 11:30:42;;;;;;;;;;;12.90;93.50;;;;;;7324293;19;9291;-80
2023/10/15 11:33:12;;;;;;;;;;;13.00;95.40;;;;;;7323148;19;9485;-79
2023/10/15 11:35:43;;;;;;;;;;;13.30;99.90;;;;;;7323706;19;9577;-80
2023/10/15 11:38:13;;;;;;;;;;;13.40;99.90;;;;;;7322827;19;10269;-80
2023/10/15 11:40:45;;;;;;;;;;;13.60;99.80;;;;;;7328356;19;9256;-79
2023/10/15 11:43:17;;;;;;;;;;;13.60;97.80;;;;;;7329887;19;9237;-80
2023/10/15 11:45:47;;;;;;;;;;;13.70;99.90;;;;;;7330317;19;9182;-79
2023/10/15 11:48:21;;;;;;;;;;;13.70;99.60;;;;;;7329675;19;9261;-80
2023/10/15 11:50:50;;;;;;;;;;;13.40;93.60;;;;;;7329795;19;9277;-80
2023/10/15 11:53:20;;;;;;;;;;;13.50;98.00;;;;;;7329860;19;9271;-80
2023/10/15 11:55:53;;;;;;;;;;;13.60;99.90;;;;;;7329690;19;9218;-80
2023/10/15 11:58:23;;;;;;;;;;;13.80;96.60;;;;;;7329958;19;9177;-80
2023/10/15 12:00:52;;;;;;;;;;;13.50;95.70;;;;;;7329597;19;10591;-80
2023/10/15 12:03:23;;;;;;;;;;;13.50;98.80;;;;;;7329682;19;9131;-80
2023/10/15 12:05:53;;;;;;;;;;;13.40;99.90;;;;;;7329000;19;9401;-80
2023/10/15 12:08:24;;;;;;;;;;;13.40;99.90;;;;;;7329628;19;11383;-79
2023/10/15 12:10:56;;;;;;;;;;;13.40;99.90;;;;;;7329532;19;9315;-80
2023/10/15 12:13:25;;;;;;;;;;;13.40;99.90;;;;;;7329036;19;9159;-79
2023/10/15 12:15:54;;;;;;;;;;;13.30;99.90;;;;;;7329201;19;9465;-79
2023/10/15 12:18:26;;;;;;;;;;;13.10;99.50;;;;;;7328290;19;9331;-80
2023/10/15 12:20:55;;;;;;;;;;;12.70;96.20;;;;;;7328878;19;11146;-80
2023/10/15 12:23:27;;;;;;;;;;;12.30;95.30;;;;;;7328420;19;9549;-80
2023/10/15 12:26:00;;;;;;;;;;;12.40;97.80;;;;;;7329018;19;9442;-79
2023/10/15 12:28:29;;;;;;;;;;;12.60;99.90;;;;;;7328538;19;9197;-80
2023/10/15 12:30:59;;;;;;;;;;;12.80;99.90;;;;;;7329064;19;9121;-80
2023/10/15 12:33:29;;;;;;;;;;;13.10;99.90;;;;;;7327969;19;9396;-80
2023/10/15 12:35:59;;;;;;;;;;;13.20;99.90;;;;;;7327853;19;9395;-80
2023/10/15 12:38:31;;;;;;;;;;;13.30;99.90;;;;;;7328114;19;9287;-80
2023/10/15 12:41:04;;;;;;;;;;;13.60;99.90;;;;;;7328498;19;9261;-80
2023/10/15 12:43:34;;;;;;;;;;;13.70;99.80;;;;;;7328121;19;9130;-80
2023/10/15 12:46:03;;;;;;;;;;;13.90;99.90;;;;;;7327998;19;9403;-80
2023/10/15 12:48:33;;;;;;;;;;;14.00;98.80;;;;;;7327889;19;9262;-80
2023/10/15 12:51:01;;;;;;;;;;;13.60;94.40;;;;;;7325727;19;9716;-80
2023/10/15 12:53:31;;;;;;;;;;;13.20;98.70;;;;;;7328551;19;9265;-79
2023/10/15 12:56:03;;;;;;;;;;;12.80;97.30;;;;;;7328290;19;9259;-80
2023/10/15 12:58:31;;;;;;;;;;;12.60;98.80;;;;;;7328046;19;9341;-80
2023/10/15 13:01:00;;;;;;;;;;;12.50;99.80;;;;;;7327339;19;10149;-80
2023/10/15 13:03:30;;;;;;;;;;;12.30;98.20;;;;;;7327893;19;9222;-80
2023/10/15 13:05:59;;;;;;;;;;;12.20;97.30;;;;;;7326975;19;9318;-80
2023/10/15 13:08:28;;;;;;;;;;;12.40;95.60;;;;;;7328097;19;9147;-79
2023/10/15 13:10:57;;;;;;;;;;;12.50;93.00;;;;;;7327583;19;9180;-80
2023/10/15 13:13:29;;;;;;;;;;;12.30;88.50;;;;;;7327141;19;9530;-80
2023/10/15 13:15:58;;;;;;;;;;;12.20;93.30;;;;;;7327532;19;9216;-80
2023/10/15 13:18:27;;;;;;;;;;;12.50;94.70;;;;;;7326088;19;9316;-80
2023/10/15 13:20:57;;;;;;;;;;;12.70;99.90;;;;;;7327572;19;9328;-80
2023/10/15 13:23:26;;;;;;;;;;;12.50;95.70;;;;;;7326942;19;9302;-80
2023/10/15 13:25:56;;;;;;;;;;;12.30;92.30;;;;;;7327767;19;9339;-80
2023/10/15 13:28:25;;;;;;;;;;;12.40;92.20;;;;;;7326667;19;9238;-80
2023/10/15 13:30:56;;;;;;;;;;;12.10;90.60;;;;;;7327052;19;9425;-79
2023/10/15 13:33:25;;;;;;;;;;;12.00;91.80;;;;;;7325903;19;9237;-80
2023/10/15 13:35:54;;;;;;;;;;;11.80;88.00;;;;;;7327105;19;10474;-79
2023/10/15 13:38:23;;;;;;;;;;;11.90;91.70;;;;;;7326766;19;9275;-79
2023/10/15 13:40:52;;;;;;;;;;;11.90;92.40;;;;;;7326701;19;9182;-79
2023/10/15 13:43:22;;;;;;;;;;;12.10;92.80;;;;;;7327049;19;9165;-79
2023/10/15 13:45:51;;;;;;;;;;;12.10;93.30;;;;;;7326878;19;11170;-79
2023/10/15 13:48:22;;;;;;;;;;;11.90;90.00;;;;;;7326066;19;9355;-79
2023/10/15 13:50:51;;;;;;;;;;;12.00;91.00;;;;;;7326855;19;9307;-79
2023/10/15 13:53:20;;;;;;;;;;;11.90;91.20;;;;;;7326668;19;9202;-79
2023/10/15 13:55:49;;;;;;;;;;;11.70;91.10;;;;;;7326482;19;9197;-80
2023/10/15 13:58:18;;;;;;;;;;;11.80;92.40;;;;;;7326686;19;9231;-79
2023/10/15 14:00:48;;;;;;;;;;;11.80;91.20;;;;;;7326118;19;9297;-79
2023/10/15 14:03:27;;;;;;;;;;;11.70;92.20;;;;;;7325955;19;9290;-79
2023/10/15 14:05:56;;;;;;;;;;;11.60;91.40;;;;;;7325782;19;10676;-80
2023/10/15 14:08:26;;;;;;;;;;;11.40;93.90;;;;;;7326528;19;9268;-79
2023/10/15 14:10:54;;;;;;;;;;;11.10;98.80;;;;;;7325880;19;9529;-80
2023/10/15 14:13:23;;;;;;;;;;;10.80;99.90;;;;;;7325898;19;9158;-79
2023/10/15 14:15:52;;;;;;;;;;;10.60;99.90;;;;;;7325423;19;9412;-79
2023/10/15 14:18:21;;;;;;;;;;;10.80;99.90;;;;;;7325913;19;10311;-79
2023/10/15 14:20:53;;;;;;;;;;;10.90;99.90;;;;;;7326050;19;9172;-80
2023/10/15 14:23:23;;;;;;;;;;;10.80;99.90;;;;;;7325538;19;9372;-79
2023/10/15 14:25:53;;;;;;;;;;;10.80;99.90;;;;;;7326353;19;9234;-79
2023/10/15 14:28:24;;;;;;;;;;;11.00;99.90;;;;;;7325073;19;9250;-80
2023/10/15 14:30:52;;;;;;;;;;;11.00;99.90;;;;;;7325448;19;9253;-80
2023/10/15 14:33:22;;;;;;;;;;;11.10;99.90;;;;;;7324571;19;10384;-79
2023/10/15 14:35:53;;;;;;;;;;;11.10;99.90;;;;;;7325553;19;9377;-80
2023/10/15 14:38:24;;;;;;;;;;;11.10;99.90;;;;;;7324551;19;9472;-79
2023/10/15 14:40:53;;;;;;;;;;;11.20;99.90;;;;;;7325017;19;9236;-80
2023/10/15 14:43:22;;;;;;;;;;;11.30;99.90;;;;;;7324673;19;9164;-79
2023/10/15 14:45:51;;;;;;;;;;;11.40;99.90;;;;;;7324513;19;9544;-80
2023/10/15 14:48:20;;;;;;;;;;;11.20;99.90;;;;;;7324923;19;9255;-80
2023/10/15 14:50:52;;;;;;;;;;;11.20;99.90;;;;;;7324792;19;9249;-80
2023/10/15 14:53:22;;;;;;;;;;;11.00;99.90;;;;;;7324923;19;9474;-80
2023/10/15 14:55:50;;;;;;;;;;;11.10;99.90;;;;;;7324265;19;9478;-79
2023/10/15 14:58:19;;;;;;;;;;;11.10;99.90;;;;;;7325170;19;9374;-79
2023/10/15 15:00:49;;;;;;;;;;;10.90;99.90;;;;;;7323553;19;9181;-79
2023/10/15 15:03:20;;;;;;;;;;;10.80;99.90;;;;;;7324373;19;9309;-79